Time;durP1;ratioP1;P1;durP2;ratioP2;P2;SDS_P1;SDS_P2;PMS_P1;PMS_P2;Temp;Humidity;BMP_temperature;BMP_pressure;BME280_temperature;BME280_humidity;BME280_pressure;Samples;Min_cycle;Max_cycle;Signal;HPM_P1;HPM_P2
2023/06/22 00:01:00;;;;;;;1999.90;853.50;;;18.20;1.00;;;;;;5050896;28;20111;-87
2023/06/22 00:03:26;;;;;;;1999.90;999.90;;;18.10;1.00;;;;;;5052030;28;20447;-88
2023/06/22 00:05:52;;;;;;;1999.90;999.90;;;18.10;1.00;;;;;;5050648;28;20099;-87
2023/06/22 00:08:19;;;;;;;1999.90;999.90;;;18.00;1.00;;;;;;5051725;28;20043;-89
2023/06/22 00:10:45;;;;;;;1999.90;999.90;;;18.00;1.00;;;;;;5020383;28;20037;-87
2023/06/22 00:13:13;;;;;;;1999.90;999.90;;;17.90;1.00;;;;;;5050760;28;20055;-86
2023/06/22 00:15:40;;;;;;;1999.90;999.90;;;17.90;1.00;;;;;;5054180;28;20087;-87
2023/06/22 00:18:10;;;;;;;1999.90;999.90;;;17.80;1.00;;;;;;5048101;28;20430;-86
2023/06/22 00:20:39;;;;;;;1999.90;999.90;;;17.80;1.00;;;;;;5052444;28;20044;-89
2023/06/22 00:23:08;;;;;;;1999.90;999.90;;;17.70;1.00;;;;;;5049086;28;20096;-87
2023/06/22 00:25:40;;;;;;;1999.90;999.90;;;17.70;1.00;;;;;;5052913;28;20103;-87
2023/06/22 00:28:07;;;;;;;1999.90;999.90;;;17.60;1.00;;;;;;5037825;28;20516;-87
2023/06/22 00:30:33;;;;;;;1999.90;999.90;;;17.60;1.00;;;;;;5034814;28;20107;-88
2023/06/22 00:32:59;;;;;;;1999.90;999.90;;;17.60;1.00;;;;;;5047630;28;20037;-87
2023/06/22 00:35:29;;;;;;;1999.90;999.90;;;17.50;1.00;;;;;;5034350;28;20128;-89
2023/06/22 00:38:03;;;;;;;1999.90;999.90;;;17.50;1.00;;;;;;5051024;28;20055;-87
2023/06/22 00:40:30;;;;;;;1999.90;999.90;;;17.50;1.00;;;;;;5051757;28;20045;-88
2023/06/22 00:42:56;;;;;;;1999.90;999.90;;;17.40;1.00;;;;;;5049324;28;20089;-87
2023/06/22 00:45:23;;;;;;;1999.90;999.90;;;17.40;1.00;;;;;;5048966;28;20048;-87
2023/06/22 00:47:51;;;;;;;1999.90;999.90;;;17.40;1.00;;;;;;5050324;28;20052;-86
2023/06/22 00:50:21;;;;;;;1999.90;999.90;;;17.40;1.00;;;;;;5052376;28;20056;-87
2023/06/22 00:52:56;;;;;;;1999.90;999.90;;;17.30;1.00;;;;;;5050554;28;21539;-87
2023/06/22 00:55:23;;;;;;;1999.90;999.90;;;17.30;1.00;;;;;;5039891;28;20044;-87
2023/06/22 00:57:49;;;;;;;1999.90;999.90;;;17.30;1.00;;;;;;5041799;28;20041;-89
2023/06/22 01:00:20;;;;;;;1999.90;999.90;;;17.20;1.00;;;;;;5051924;28;20413;-87
2023/06/22 01:02:46;;;;;;;1999.90;999.90;;;17.20;1.00;;;;;;5049961;28;20049;-86
2023/06/22 01:05:13;;;;;;;1999.90;999.90;;;17.20;1.00;;;;;;5048328;28;20150;-86
2023/06/22 01:07:51;;;;;;;1999.90;999.90;;;17.10;1.00;;;;;;5035538;28;20045;-87
2023/06/22 01:10:38;;;;;;;1999.90;999.90;;;17.10;1.00;;;;;;5052078;28;20055;-87
2023/06/22 01:13:22;;;;;;;1999.90;999.90;;;17.10;1.00;;;;;;5051929;28;20080;-87
2023/06/22 01:15:56;;;;;;;1999.90;999.90;;;17.10;1.00;;;;;;5052667;28;20049;-86
2023/06/22 01:18:25;;;;;;;1999.90;999.90;;;17.00;1.00;;;;;;5040295;28;20049;-90
2023/06/22 01:20:55;;;;;;;1999.90;999.90;;;17.00;1.00;;;;;;5049693;28;20048;-86
2023/06/22 01:23:45;;;;;;;1999.90;999.90;;;16.90;1.00;;;;;;5051232;28;20066;-86
2023/06/22 01:26:40;;;;;;;1999.90;999.90;;;17.00;1.00;;;;;;5049596;28;20497;-89
2023/06/22 01:29:08;;;;;;;1999.90;999.90;;;16.90;1.00;;;;;;5050775;28;20072;-87
2023/06/22 01:31:35;;;;;;;1999.90;999.90;;;16.50;1.00;;;;;;5050695;28;20053;-87
2023/06/22 01:34:04;;;;;;;1999.90;999.90;;;16.90;1.00;;;;;;5048747;28;20045;-90
2023/06/22 01:36:32;;;;;;;1999.90;999.90;;;16.80;1.00;;;;;;5048983;28;20181;-86
2023/06/22 01:38:58;;;;;;;1999.90;999.90;;;16.80;1.00;;;;;;5050495;28;20053;-86
2023/06/22 01:41:30;;;;;;;1999.90;999.90;;;16.70;1.00;;;;;;5049922;28;20037;-84
2023/06/22 01:43:56;;;;;;;1999.90;999.90;;;16.70;1.00;;;;;;5049096;28;20079;-85
2023/06/22 01:46:23;;;;;;;1999.90;999.90;;;16.70;1.00;;;;;;5049080;28;20044;-85
2023/06/22 01:48:50;;;;;;;1999.90;999.90;;;16.70;1.00;;;;;;5052848;28;20511;-85
2023/06/22 01:51:15;;;;;;;1999.90;999.90;;;16.60;1.00;;;;;;5050107;28;20056;-85
2023/06/22 01:53:42;;;;;;;1999.90;999.90;;;16.60;1.00;;;;;;5051858;28;20438;-84
2023/06/22 01:56:08;;;;;;;1999.90;999.90;;;16.60;1.00;;;;;;5048704;28;20098;-84
2023/06/22 01:58:41;;;;;;;1999.90;999.90;;;16.60;1.00;;;;;;5050426;28;20037;-85
2023/06/22 02:01:12;;;;;;;1999.90;999.90;;;16.50;1.00;;;;;;5048308;28;20559;-86
2023/06/22 02:03:43;;;;;;;1999.90;999.90;;;16.50;1.00;;;;;;5050360;28;20080;-85
2023/06/22 02:06:17;;;;;;;1999.90;999.90;;;16.50;1.00;;;;;;5046222;28;20055;-85
2023/06/22 02:08:53;;;;;;;1999.90;999.90;;;16.40;1.00;;;;;;5050988;28;20040;-85
2023/06/22 02:11:21;;;;;;;1999.90;999.90;;;16.40;1.00;;;;;;5044529;28;20076;-85
2023/06/22 02:13:48;;;;;;;1999.90;999.90;;;16.40;1.00;;;;;;5050588;28;20488;-85
2023/06/22 02:16:15;;;;;;;1999.90;999.03;;;16.30;1.00;;;;;;5046402;28;20073;-85
2023/06/22 02:18:51;;;;;;;1999.90;995.60;;;16.30;1.00;;;;;;5035303;28;20080;-85
2023/06/22 02:21:20;;;;;;;1999.90;999.90;;;16.30;1.00;;;;;;5051842;28;20076;-84
2023/06/22 02:23:46;;;;;;;1999.90;999.90;;;16.30;1.00;;;;;;5048985;28;20044;-84
2023/06/22 02:26:13;;;;;;;1999.90;999.90;;;16.30;1.00;;;;;;5050409;28;20044;-89
2023/06/22 02:28:38;;;;;;;1999.90;999.90;;;16.30;1.00;;;;;;5049249;28;20056;-84
2023/06/22 02:31:04;;;;;;;1999.90;999.90;;;16.20;1.00;;;;;;5047371;28;20396;-85
2023/06/22 02:33:30;;;;;;;1999.90;996.95;;;16.20;1.00;;;;;;5046717;28;20068;-85
2023/06/22 02:35:56;;;;;;;1999.90;999.90;;;16.20;1.00;;;;;;5050944;28;20090;-84
2023/06/22 02:38:24;;;;;;;1999.90;999.90;;;16.20;1.00;;;;;;5049132;28;20041;-84
2023/06/22 02:40:50;;;;;;;1999.90;993.63;;;16.10;1.00;;;;;;5050725;28;20037;-85
2023/06/22 02:43:16;;;;;;;1999.90;999.90;;;16.10;1.00;;;;;;5027684;28;20595;-85
2023/06/22 02:45:42;;;;;;;1999.90;999.90;;;16.10;1.00;;;;;;5051664;28;20477;-85
2023/06/22 02:48:08;;;;;;;1999.90;999.90;;;16.10;1.00;;;;;;5033100;28;20037;-84
2023/06/22 02:50:34;;;;;;;1999.90;999.90;;;16.00;1.00;;;;;;5050738;28;20124;-84
2023/06/22 02:52:59;;;;;;;1999.90;999.90;;;16.00;1.00;;;;;;5048664;28;20544;-84
2023/06/22 02:55:25;;;;;;;1999.90;999.90;;;16.00;1.50;;;;;;5050149;28;20480;-85
2023/06/22 02:57:52;;;;;;;1999.90;999.90;;;16.00;3.20;;;;;;5047696;28;20040;-84
2023/06/22 03:00:19;;;;;;;1999.90;999.90;;;15.90;6.70;;;;;;5048863;28;20036;-84
2023/06/22 03:02:46;;;;;;;1999.90;999.90;;;15.90;14.10;;;;;;5047811;28;20075;-84
2023/06/22 03:05:13;;;;;;;1999.90;999.90;;;15.80;15.80;;;;;;5047081;28;20040;-84
2023/06/22 03:07:43;;;;;;;1999.90;999.90;;;15.80;18.90;;;;;;5028600;28;20076;-83
2023/06/22 03:10:10;;;;;;;1999.90;999.90;;;15.80;33.40;;;;;;5048375;28;20083;-84
2023/06/22 03:12:37;;;;;;;1999.90;999.90;;;15.80;36.10;;;;;;5050283;28;20037;-84
2023/06/22 03:15:07;;;;;;;1999.90;671.45;;;15.80;45.20;;;;;;5047517;28;20428;-84
2023/06/22 03:17:34;;;;;;;1999.90;999.90;;;15.70;49.00;;;;;;5030187;28;20045;-84
2023/06/22 03:19:59;;;;;;;1999.90;884.53;;;15.80;58.30;;;;;;5051055;28;20051;-84
2023/06/22 03:22:25;;;;;;;1999.90;551.97;;;15.80;56.90;;;;;;5050176;28;20045;-84
2023/06/22 03:24:51;;;;;;;1999.90;999.90;;;15.80;59.40;;;;;;5053766;28;20065;-85
2023/06/22 03:27:17;;;;;;;1999.90;999.90;;;15.80;80.90;;;;;;5052590;28;20477;-85
2023/06/22 03:29:44;;;;;;;1999.90;999.90;;;15.80;94.50;;;;;;5053994;28;20047;-86
2023/06/22 03:32:10;;;;;;;1999.90;999.90;;;15.80;94.70;;;;;;5052401;28;20388;-84
2023/06/22 03:34:36;;;;;;;1999.90;835.97;;;15.80;94.40;;;;;;5053524;28;20778;-85
2023/06/22 03:37:02;;;;;;;1999.90;999.90;;;15.80;98.00;;;;;;5037294;28;20053;-87
2023/06/22 03:39:28;;;;;;;1999.90;560.80;;;15.80;98.80;;;;;;5054553;28;20111;-85
2023/06/22 03:41:54;;;;;;;1999.90;999.90;;;15.70;97.40;;;;;;5052915;28;20120;-85
2023/06/22 03:44:20;;;;;;;1999.90;999.90;;;15.70;97.50;;;;;;5051938;28;20056;-90
2023/06/22 03:46:45;;;;;;;1999.90;999.90;;;15.70;97.40;;;;;;5053550;28;20099;-84
2023/06/22 03:49:11;;;;;;;1999.90;999.90;;;15.70;99.90;;;;;;5053439;28;20045;-85
2023/06/22 03:51:37;;;;;;;1999.90;999.90;;;15.70;99.90;;;;;;5054129;28;20049;-84
2023/06/22 03:54:02;;;;;;;1999.90;999.90;;;15.70;99.90;;;;;;5052382;28;20048;-84
2023/06/22 03:56:28;;;;;;;1999.90;999.90;;;15.70;99.90;;;;;;5051077;28;20044;-84
2023/06/22 03:58:54;;;;;;;1999.90;512.65;;;15.70;99.90;;;;;;5053420;28;20039;-84
2023/06/22 04:01:19;;;;;;;1999.90;481.42;;;15.70;99.90;;;;;;5052054;28;20071;-85
2023/06/22 04:03:48;;;;;;;1999.90;999.90;;;15.80;99.90;;;;;;5048103;28;20067;-83
2023/06/22 04:06:13;;;;;;;1999.90;401.48;;;15.80;99.90;;;;;;5048043;28;20076;-87
2023/06/22 04:08:39;;;;;;;1999.90;999.90;;;15.80;99.90;;;;;;5046266;28;20045;-83
2023/06/22 04:11:05;;;;;;;1999.90;999.90;;;15.80;99.90;;;;;;5037318;28;20041;-83
2023/06/22 04:13:30;;;;;;;1999.90;999.90;;;15.80;99.90;;;;;;5051355;28;20033;-82
2023/06/22 04:15:56;;;;;;;1999.90;999.90;;;15.80;99.90;;;;;;5055345;28;20049;-83
2023/06/22 04:18:22;;;;;;;1999.90;999.90;;;15.90;99.90;;;;;;5043691;28;20049;-83
2023/06/22 04:20:48;;;;;;;1999.90;628.85;;;15.90;99.90;;;;;;5031204;28;20511;-84
2023/06/22 04:23:13;;;;;;;1999.90;999.90;;;15.90;99.90;;;;;;5051831;28;20037;-87
2023/06/22 04:25:39;;;;;;;1999.90;425.10;;;15.90;99.90;;;;;;5032497;28;20085;-83
2023/06/22 04:28:12;;;;;;;1999.90;999.90;;;15.90;99.90;;;;;;5048281;28;20140;-83
2023/06/22 04:30:45;;;;;;;1999.90;999.90;;;16.00;99.90;;;;;;5050364;28;20057;-83
2023/06/22 04:33:15;;;;;;;1999.90;999.90;;;16.00;99.90;;;;;;5018734;28;20045;-84
2023/06/22 04:35:41;;;;;;;1999.90;999.90;;;16.10;99.90;;;;;;5051048;28;20041;-84
2023/06/22 04:38:07;;;;;;;1999.90;999.90;;;16.10;99.90;;;;;;5048299;28;20053;-84
2023/06/22 04:40:33;;;;;;;1999.90;999.90;;;16.10;99.90;;;;;;5024856;28;20541;-83
2023/06/22 04:43:02;;;;;;;1999.90;999.90;;;16.10;99.90;;;;;;5044039;28;20053;-83
2023/06/22 04:45:28;;;;;;;1999.90;999.90;;;16.20;99.90;;;;;;5051843;28;20520;-82
2023/06/22 04:47:55;;;;;;;1999.90;999.90;;;16.20;99.90;;;;;;5052041;28;20077;-83
2023/06/22 04:50:21;;;;;;;1999.90;999.90;;;16.30;99.90;;;;;;5034529;28;20052;-83
2023/06/22 04:52:47;;;;;;;1796.45;251.88;;;16.40;99.90;;;;;;5048144;28;20048;-83
2023/06/22 04:55:18;;;;;;;1999.90;999.90;;;16.40;99.90;;;;;;5044488;28;20076;-85
2023/06/22 04:57:48;;;;;;;1999.90;999.90;;;16.50;99.90;;;;;;5049450;28;20057;-84
2023/06/22 05:00:23;;;;;;;1999.90;999.90;;;16.60;99.90;;;;;;5055739;28;20086;-85
2023/06/22 05:02:49;;;;;;;1503.22;214.93;;;16.60;99.90;;;;;;5047432;28;20128;-85
2023/06/22 05:05:16;;;;;;;1999.90;999.90;;;16.70;99.90;;;;;;5044816;28;20042;-87
2023/06/22 05:07:48;;;;;;;1999.90;999.90;;;16.70;99.90;;;;;;5051206;28;20053;-85
2023/06/22 05:10:14;;;;;;;1999.90;999.90;;;16.80;99.90;;;;;;5050887;28;20033;-84
2023/06/22 05:12:41;;;;;;;1999.90;999.90;;;16.80;99.90;;;;;;5051334;28;20041;-86
2023/06/22 05:15:08;;;;;;;1999.90;999.90;;;16.90;99.90;;;;;;5035100;28;20060;-85
2023/06/22 05:17:35;;;;;;;1999.90;999.90;;;16.90;99.90;;;;;;5050487;28;20143;-85
2023/06/22 05:20:02;;;;;;;1999.90;999.90;;;17.00;99.90;;;;;;5052573;28;20051;-86
2023/06/22 05:22:27;;;;;;;1999.90;999.90;;;17.00;99.90;;;;;;5052999;28;20064;-85
2023/06/22 05:24:53;;;;;;;1999.90;999.90;;;17.10;99.90;;;;;;5048686;28;20480;-85
2023/06/22 05:27:19;;;;;;;1999.90;999.90;;;17.20;99.90;;;;;;5047088;28;20045;-86
2023/06/22 05:29:44;;;;;;;1999.90;999.90;;;17.30;99.90;;;;;;5050717;28;20489;-84
2023/06/22 05:32:10;;;;;;;1999.90;999.90;;;17.30;99.90;;;;;;5037696;28;20549;-85
2023/06/22 05:34:36;;;;;;;1999.90;999.90;;;17.50;99.90;;;;;;5043680;28;20041;-85
2023/06/22 05:37:02;;;;;;;1999.90;999.90;;;17.60;99.90;;;;;;5049714;28;20482;-85
2023/06/22 05:39:28;;;;;;;1999.90;999.90;;;17.70;99.90;;;;;;5033508;28;20106;-85
2023/06/22 05:41:54;;;;;;;1999.90;999.90;;;17.90;99.90;;;;;;5031643;28;20041;-86
2023/06/22 05:44:19;;;;;;;1999.90;999.90;;;18.10;99.90;;;;;;5048901;28;20056;-91
2023/06/22 05:46:48;;;;;;;1999.90;999.90;;;18.20;99.90;;;;;;5016086;28;20113;-85
2023/06/22 05:49:14;;;;;;;1999.90;999.90;;;18.30;99.90;;;;;;5039930;28;20052;-83
2023/06/22 05:51:41;;;;;;;1999.90;999.90;;;18.50;99.90;;;;;;5048834;28;20298;-87
2023/06/22 05:54:07;;;;;;;1999.90;999.90;;;18.60;99.90;;;;;;5049197;28;20053;-84
2023/06/22 05:56:33;;;;;;;1999.90;999.90;;;18.70;99.90;;;;;;5039414;28;20045;-87
2023/06/22 05:58:59;;;;;;;1999.90;999.90;;;18.70;99.90;;;;;;5046712;28;20059;-87
2023/06/22 06:01:25;;;;;;;1999.90;999.90;;;18.90;98.20;;;;;;5052691;28;20500;-86
2023/06/22 06:03:52;;;;;;;1999.90;999.90;;;19.00;88.70;;;;;;5031559;28;20383;-86
2023/06/22 06:06:21;;;;;;;1999.90;999.90;;;19.10;90.90;;;;;;5049694;28;20447;-86
2023/06/22 06:08:46;;;;;;;1999.90;999.90;;;19.20;67.90;;;;;;5046524;28;20507;-86
2023/06/22 06:11:12;;;;;;;1999.90;999.90;;;19.20;60.20;;;;;;5030640;28;20045;-87
2023/06/22 06:13:38;;;;;;;1999.90;999.90;;;19.30;33.80;;;;;;5045804;28;20045;-85
2023/06/22 06:16:03;;;;;;;1999.90;999.90;;;19.40;38.80;;;;;;5048922;28;20053;-86
2023/06/22 06:18:29;;;;;;;1999.90;999.90;;;19.50;1.00;;;;;;5050183;28;20052;-87
2023/06/22 06:20:55;;;;;;;1999.90;999.90;;;19.60;1.10;;;;;;5050791;28;20059;-89
2023/06/22 06:23:22;;;;;;;1999.90;999.90;;;19.70;1.00;;;;;;5038766;28;20041;-90
2023/06/22 06:25:47;;;;;;;1999.90;999.90;;;19.80;1.00;;;;;;5032308;28;20303;-87
2023/06/22 06:28:13;;;;;;;1999.90;999.90;;;19.80;1.00;;;;;;5049285;28;20059;-85
2023/06/22 06:30:39;;;;;;;1999.90;999.90;;;19.90;1.00;;;;;;5048478;28;20053;-89
2023/06/22 06:33:08;;;;;;;1999.90;999.90;;;20.00;1.00;;;;;;5047593;28;20045;-86
2023/06/22 06:35:34;;;;;;;1999.90;999.90;;;20.20;1.00;;;;;;5050890;28;20056;-86
2023/06/22 06:38:00;;;;;;;1999.90;999.90;;;20.30;1.00;;;;;;5048202;28;20128;-87
2023/06/22 06:40:26;;;;;;;1999.90;999.90;;;20.40;1.00;;;;;;5048572;28;20151;-90
2023/06/22 06:42:51;;;;;;;1999.90;999.90;;;20.60;1.00;;;;;;5047665;28;20049;-88
2023/06/22 06:45:22;;;;;;;1999.90;999.90;;;20.80;1.00;;;;;;5049724;28;20473;-87
2023/06/22 06:47:49;;;;;;;1999.90;999.90;;;21.00;1.00;;;;;;5050016;28;20056;-87
2023/06/22 06:50:15;;;;;;;1999.90;903.33;;;21.20;1.00;;;;;;5051355;28;20071;-86
2023/06/22 06:52:41;;;;;;;1999.90;999.90;;;21.50;1.00;;;;;;5051027;28;20116;-87
2023/06/22 06:55:10;;;;;;;1999.90;999.90;;;21.60;99.90;;;;;;5017333;28;20095;-87
2023/06/22 06:57:37;;;;;;;1999.90;706.30;;;21.90;99.90;;;;;;5031177;28;20059;-86
2023/06/22 07:00:09;;;;;;;1999.90;999.90;;;22.10;99.90;;;;;;5050262;28;20057;-87
2023/06/22 07:02:35;;;;;;;1999.90;999.90;;;22.30;99.90;;;;;;5048226;28;20497;-88
2023/06/22 07:05:03;;;;;;;1999.90;999.90;;;22.50;99.90;;;;;;5052694;28;20095;-91
2023/06/22 07:07:29;;;;;;;1999.90;999.90;;;22.70;99.90;;;;;;5048826;28;20076;-88
2023/06/22 07:09:55;;;;;;;1999.90;999.90;;;23.00;99.90;;;;;;5051538;28;20111;-85
2023/06/22 07:12:20;;;;;;;1999.90;999.90;;;23.20;99.90;;;;;;5050562;28;20049;-87
2023/06/22 07:14:46;;;;;;;1999.90;999.90;;;23.60;99.90;;;;;;5051014;28;20404;-87
2023/06/22 07:17:12;;;;;;;1999.90;999.90;;;23.70;99.90;;;;;;5041454;28;20126;-88
2023/06/22 07:19:38;;;;;;;1999.90;999.90;;;24.10;99.90;;;;;;5030164;28;20053;-88
2023/06/22 07:22:04;;;;;;;1999.90;999.90;;;24.40;99.90;;;;;;5050844;28;20084;-87
2023/06/22 07:24:30;;;;;;;1999.90;999.90;;;24.70;99.90;;;;;;5031993;28;20069;-89
2023/06/22 07:26:58;;;;;;;1999.90;999.90;;;24.90;99.90;;;;;;5049490;28;20140;-85
2023/06/22 07:29:25;;;;;;;1999.90;999.90;;;25.20;99.90;;;;;;5035048;28;20061;-87
2023/06/22 07:31:56;;;;;;;1999.90;999.90;;;25.50;99.90;;;;;;5033834;28;20092;-88
2023/06/22 07:34:22;;;;;;;1999.90;999.90;;;25.60;99.90;;;;;;5031816;28;20055;-88
2023/06/22 07:36:48;;;;;;;1999.90;999.90;;;26.10;99.90;;;;;;5028824;28;20075;-88
2023/06/22 07:39:14;;;;;;;1999.90;999.90;;;26.60;99.90;;;;;;5033795;28;20079;-88
2023/06/22 07:41:40;;;;;;;1999.90;999.90;;;27.20;99.90;;;;;;5049471;28;20061;-87
2023/06/22 07:44:07;;;;;;;1999.90;999.90;;;28.00;99.90;;;;;;5051062;28;20163;-88
2023/06/22 07:46:33;;;;;;;1999.90;999.90;;;28.60;99.90;;;;;;5028161;28;20053;-87
2023/06/22 07:49:01;;;;;;;1999.90;999.90;;;29.50;99.90;;;;;;5016757;28;20083;-88
2023/06/22 07:51:26;;;;;;;1999.90;999.90;;;30.70;99.90;;;;;;5051057;28;20049;-87
2023/06/22 07:53:52;;;;;;;1999.90;999.90;;;31.50;99.90;;;;;;5050877;28;20049;-88
2023/06/22 07:56:21;;;;;;;1999.90;999.90;;;32.10;99.90;;;;;;5031093;28;20041;-90
2023/06/22 07:58:47;;;;;;;1999.90;999.90;;;32.70;99.90;;;;;;5033988;28;20459;-89
2023/06/22 08:01:16;;;;;;;1999.90;999.90;;;33.20;99.90;;;;;;5049389;28;20051;-89
2023/06/22 08:03:42;;;;;;;1999.90;999.90;;;33.50;99.90;;;;;;5050347;28;20072;-89
2023/06/22 08:06:09;;;;;;;1999.90;999.90;;;33.90;99.90;;;;;;5050002;28;20045;-87
2023/06/22 08:08:35;;;;;;;1999.90;999.90;;;34.10;99.90;;;;;;5053849;28;20452;-88
2023/06/22 08:11:04;;;;;;;1999.90;999.90;;;34.20;99.90;;;;;;5037962;28;20415;-88
2023/06/22 08:13:30;;;;;;;1999.90;999.90;;;33.80;99.90;;;;;;5051087;28;20076;-88
2023/06/22 08:15:56;;;;;;;1999.90;999.90;;;34.20;99.90;;;;;;5051922;28;20087;-88
2023/06/22 08:18:22;;;;;;;1999.90;999.90;;;34.60;99.90;;;;;;5053449;28;20048;-88
2023/06/22 08:20:47;;;;;;;1999.90;999.90;;;34.90;99.90;;;;;;5054097;28;20041;-88
2023/06/22 08:23:13;;;;;;;1999.90;999.90;;;35.50;99.90;;;;;;5036781;28;20072;-89
2023/06/22 08:25:39;;;;;;;1999.90;999.90;;;35.80;99.90;;;;;;5054769;28;20538;-91
2023/06/22 08:28:05;;;;;;;1999.90;999.90;;;36.00;99.90;;;;;;5022981;28;20049;-88
2023/06/22 08:30:31;;;;;;;1999.90;999.90;;;36.40;99.90;;;;;;5052209;28;20075;-88
2023/06/22 08:32:56;;;;;;;1999.90;999.90;;;36.80;99.90;;;;;;5052928;28;20041;-88
2023/06/22 08:35:24;;;;;;;1999.90;999.90;;;37.20;99.90;;;;;;5053802;28;20052;-88
2023/06/22 08:37:52;;;;;;;;;;;37.40;99.90;;;;;;5053251;28;20067;-88
2023/06/22 08:40:19;;;;;;;1999.90;999.90;;;37.90;99.90;;;;;;5038010;28;19927;-89
2023/06/22 08:42:45;;;;;;;;;;;37.40;99.90;;;;;;5053553;28;20063;-89
2023/06/22 08:45:11;;;;;;;1999.90;999.90;;;37.60;99.90;;;;;;5037508;28;20395;-89
2023/06/22 08:47:37;;;;;;;1999.90;999.90;;;37.60;99.90;;;;;;5032472;28;20049;-88
2023/06/22 08:50:07;;;;;;;1999.90;999.90;;;37.90;99.90;;;;;;5036631;28;20124;-88
2023/06/22 08:52:33;;;;;;;1999.90;999.90;;;38.30;99.90;;;;;;5037357;28;20081;-89
2023/06/22 08:54:59;;;;;;;1999.90;999.90;;;38.40;99.90;;;;;;5036184;28;20173;-89
2023/06/22 08:57:24;;;;;;;1999.90;999.90;;;38.80;99.90;;;;;;5052505;28;20083;-90
2023/06/22 08:59:52;;;;;;;1999.90;999.90;;;38.40;99.90;;;;;;5054593;28;20055;-91
2023/06/22 09:02:19;;;;;;;1999.90;999.90;;;38.80;99.90;;;;;;5052442;28;20049;-89
2023/06/22 09:04:46;;;;;;;1999.90;999.90;;;39.10;99.90;;;;;;5050964;28;20111;-89
2023/06/22 09:07:11;;;;;;;1999.90;999.90;;;39.10;99.90;;;;;;5034685;28;20462;-90
2023/06/22 09:09:39;;;;;;;1999.90;999.90;;;39.20;99.90;;;;;;5051414;28;20120;-89
2023/06/22 09:12:06;;;;;;;1999.90;999.90;;;39.30;99.90;;;;;;5068823;28;20044;-89
2023/06/22 09:14:34;;;;;;;1999.90;999.90;;;39.50;99.90;;;;;;5035790;28;20047;-89
2023/06/22 09:16:59;;;;;;;1999.90;999.90;;;39.60;99.90;;;;;;5051324;28;20053;-89
2023/06/22 09:19:28;;;;;;;1999.90;999.90;;;39.60;99.90;;;;;;5052534;28;20055;-88
2023/06/22 09:21:54;;;;;;;1999.90;999.90;;;39.70;99.90;;;;;;5052840;28;20579;-89
2023/06/22 09:24:22;;;;;;;1999.90;999.90;;;39.40;99.90;;;;;;5034680;28;20163;-89
2023/06/22 09:26:48;;;;;;;1999.90;999.90;;;39.80;99.90;;;;;;5049036;28;20040;-89
2023/06/22 09:29:16;;;;;;;1999.90;999.90;;;40.10;99.90;;;;;;5051620;28;20135;-89
2023/06/22 09:31:44;;;;;;;1999.90;999.90;;;39.90;99.90;;;;;;5053046;28;20072;-89
2023/06/22 09:34:09;;;;;;;1999.90;999.90;;;40.30;99.90;;;;;;5052738;28;20092;-89
2023/06/22 09:36:36;;;;;;;1999.90;999.90;;;40.80;99.90;;;;;;5052084;28;20089;-89
2023/06/22 09:39:06;;;;;;;1999.90;999.90;;;40.80;99.90;;;;;;5031428;28;20045;-90
2023/06/22 09:41:31;;;;;;;1999.90;999.90;;;41.20;99.90;;;;;;5033159;28;20045;-89
2023/06/22 09:43:57;;;;;;;1999.90;999.90;;;41.10;99.90;;;;;;5049772;28;20130;-89
2023/06/22 09:46:34;;;;;;;1999.90;999.90;;;41.30;99.90;;;;;;5051086;28;20103;-90
2023/06/22 09:49:00;;;;;;;1999.90;999.90;;;41.40;99.90;;;;;;5035469;28;20076;-90
2023/06/22 09:51:26;;;;;;;1999.90;999.90;;;41.60;99.90;;;;;;5036100;28;20077;-89
2023/06/22 09:53:55;;;;;;;1999.90;999.90;;;41.50;99.90;;;;;;5053057;28;20053;-90
2023/06/22 09:56:24;;;;;;;1999.90;999.90;;;41.40;99.90;;;;;;5050707;28;20442;-90
2023/06/22 09:58:55;;;;;;;1999.90;999.90;;;41.30;99.90;;;;;;5050962;28;20049;-90
2023/06/22 10:01:21;;;;;;;1999.90;999.90;;;41.20;99.90;;;;;;5036122;28;20067;-90
2023/06/22 10:03:47;;;;;;;1999.90;999.90;;;41.50;99.90;;;;;;5035966;28;20132;-90
2023/06/22 10:06:18;;;;;;;1999.90;999.90;;;41.20;99.90;;;;;;5034849;28;20210;-90
2023/06/22 10:08:49;;;;;;;1999.90;999.90;;;41.30;99.90;;;;;;5038671;28;20053;-89
2023/06/22 10:11:22;;;;;;;1999.90;999.90;;;40.90;99.90;;;;;;5034020;28;20092;-91
2023/06/22 10:13:51;;;;;;;1999.90;999.90;;;41.00;99.90;;;;;;5023783;28;20063;-89
2023/06/22 10:16:17;;;;;;;1999.90;999.90;;;41.40;99.90;;;;;;5050364;28;20079;-89
2023/06/22 10:18:45;;;;;;;1999.90;999.90;;;41.50;99.90;;;;;;5052046;28;20064;-90
2023/06/22 10:21:14;;;;;;;1999.90;999.90;;;41.20;99.90;;;;;;5058206;28;20037;-90
2023/06/22 10:23:39;;;;;;;1999.90;999.90;;;40.40;99.90;;;;;;5080654;28;20052;-90
2023/06/22 10:26:22;;;;;;;1999.90;999.90;;;39.70;99.90;;;;;;5049923;28;20053;-89
2023/06/22 10:28:55;;;;;;;1999.90;999.90;;;39.30;99.90;;;;;;5050341;28;20128;-90
2023/06/22 10:31:24;;;;;;;1999.90;999.90;;;38.90;99.90;;;;;;5068104;28;20047;-90
2023/06/22 10:33:53;;;;;;;1999.90;999.90;;;39.70;99.90;;;;;;5059542;28;20047;-89
2023/06/22 10:36:19;;;;;;;1999.90;999.90;;;40.30;99.90;;;;;;5061956;28;20041;-89
2023/06/22 10:38:46;;;;;;;1999.90;999.90;;;40.90;99.90;;;;;;5047316;28;20500;-91
2023/06/22 10:41:24;;;;;;;1999.90;999.90;;;40.80;99.90;;;;;;5063778;28;20303;-94
2023/06/22 10:43:50;;;;;;;1999.90;999.90;;;39.90;99.90;;;;;;5053190;28;20037;-90
2023/06/22 10:46:19;;;;;;;1999.90;999.90;;;40.10;99.90;;;;;;5057008;28;20056;-93
2023/06/22 10:48:49;;;;;;;1999.90;999.90;;;40.60;99.90;;;;;;5031796;28;20049;-90
2023/06/22 10:51:17;;;;;;;1999.90;999.90;;;41.10;99.90;;;;;;5034862;28;20041;-89
2023/06/22 10:53:43;;;;;;;1999.90;999.90;;;41.30;99.90;;;;;;5051881;28;20057;-90
2023/06/22 10:56:11;;;;;;;1999.90;999.90;;;41.40;99.90;;;;;;5051176;28;20060;-91
2023/06/22 10:58:40;;;;;;;1999.90;999.90;;;41.90;99.90;;;;;;5050478;28;20366;-91
2023/06/22 11:01:12;;;;;;;1999.90;999.90;;;42.10;99.90;;;;;;5018005;28;20060;-88
2023/06/22 11:03:41;;;;;;;1999.90;999.90;;;42.20;99.90;;;;;;5034395;28;20072;-88
2023/06/22 11:06:11;;;;;;;1999.90;999.90;;;42.00;99.90;;;;;;5032756;28;20118;-89
2023/06/22 11:08:37;;;;;;;1999.90;999.90;;;41.30;99.90;;;;;;5049250;28;20445;-89
2023/06/22 11:11:03;;;;;;;1999.90;999.90;;;40.80;99.90;;;;;;5050424;28;20116;-91
2023/06/22 11:13:28;;;;;;;1999.90;999.90;;;40.10;99.90;;;;;;5046901;28;20033;-89
2023/06/22 11:15:57;;;;;;;1999.90;999.90;;;39.70;99.90;;;;;;5049836;28;20045;-88
2023/06/22 11:18:25;;;;;;;1999.90;999.90;;;39.20;99.90;;;;;;5017704;28;20412;-89
2023/06/22 11:20:54;;;;;;;1999.90;999.90;;;38.90;99.90;;;;;;5018240;28;20076;-88
2023/06/22 11:23:27;;;;;;;1999.90;999.90;;;38.70;99.90;;;;;;5034222;28;20120;-89
2023/06/22 11:25:53;;;;;;;1999.90;999.90;;;38.20;99.90;;;;;;5033977;28;20045;-89
2023/06/22 11:28:19;;;;;;;1999.90;999.90;;;37.60;99.90;;;;;;5047433;28;20044;-89
2023/06/22 11:30:49;;;;;;;1999.90;999.90;;;36.80;99.90;;;;;;5051067;28;20283;-89
2023/06/22 11:33:15;;;;;;;1999.90;999.90;;;36.30;99.90;;;;;;5049589;28;20041;-88
2023/06/22 11:35:41;;;;;;;1999.90;999.90;;;35.70;99.90;;;;;;5034237;28;20040;-89
2023/06/22 11:38:07;;;;;;;1999.90;999.90;;;35.40;99.90;;;;;;5049568;28;20051;-89
2023/06/22 11:40:33;;;;;;;1999.90;999.90;;;35.10;99.90;;;;;;5019227;28;20057;-89
2023/06/22 11:42:59;;;;;;;1999.90;999.90;;;34.90;99.90;;;;;;5048986;28;20299;-90
2023/06/22 11:45:25;;;;;;;1999.90;999.90;;;34.70;99.90;;;;;;5054647;28;20103;-89
2023/06/22 11:47:51;;;;;;;1999.90;999.90;;;34.70;99.90;;;;;;5054919;28;20045;-90
2023/06/22 11:50:17;;;;;;;1999.90;999.90;;;34.20;99.90;;;;;;5054673;28;20147;-89
2023/06/22 11:52:42;;;;;;;1999.90;999.90;;;34.20;99.90;;;;;;5053335;28;20056;-91
2023/06/22 11:55:11;;;;;;;1999.90;999.90;;;34.70;99.90;;;;;;5054567;28;20032;-89
2023/06/22 11:58:02;;;;;;;1999.90;999.90;;;34.50;99.90;;;;;;5049874;28;20056;-90
2023/06/22 12:00:30;;;;;;;1999.90;999.90;;;34.50;99.90;;;;;;5044061;28;20472;-89
2023/06/22 12:02:56;;;;;;;1999.90;999.90;;;34.50;99.90;;;;;;5044258;28;20033;-89
2023/06/22 12:05:29;;;;;;;1999.90;999.90;;;34.50;99.90;;;;;;5053121;28;20114;-89